createdAt,value
2023-01-12T00:01:50.020Z,59.80
2023-01-12T00:04:21.043Z,56.34
2023-01-12T00:06:52.749Z,56.25
2023-01-12T00:09:24.265Z,58.75
2023-01-12T00:11:55.191Z,61.23
2023-01-12T00:14:26.348Z,65.81
2023-01-12T00:16:57.375Z,67.50
2023-01-12T00:19:28.831Z,64.26
2023-01-12T00:22:02.117Z,61.08
2023-01-12T00:24:31.364Z,59.61
2023-01-12T00:27:02.873Z,55.16
2023-01-12T00:29:33.702Z,58.92
2023-01-12T00:32:04.635Z,64.28
2023-01-12T00:34:35.437Z,64.66
2023-01-12T00:37:06.109Z,62.40
2023-01-12T00:39:40.711Z,58.96
2023-01-12T00:42:31.948Z,59.72
2023-01-12T00:45:20.184Z,64.70
2023-01-12T00:47:51.087Z,63.29
2023-01-12T00:50:22.062Z,61.67
2023-01-12T00:52:52.767Z,59.75
2023-01-12T00:55:23.630Z,58.84
2023-01-12T00:57:54.686Z,62.36
2023-01-12T01:00:26.015Z,65.17
2023-01-12T01:02:56.626Z,60.80
2023-01-12T01:05:27.448Z,58.49
2023-01-12T01:07:58.428Z,63.38
2023-01-12T01:10:29.219Z,63.76
2023-01-12T01:12:59.957Z,63.09
2023-01-12T01:15:31.443Z,62.45
2023-01-12T01:18:02.095Z,57.80
2023-01-12T01:20:36.078Z,59.52
2023-01-12T01:23:06.921Z,63.69
2023-01-12T01:25:38.103Z,65.90
2023-01-12T01:28:08.999Z,65.00
2023-01-12T01:30:39.770Z,63.63
2023-01-12T01:33:10.418Z,62.16
2023-01-12T01:35:41.200Z,58.62
2023-01-12T01:38:11.949Z,59.95
2023-01-12T01:40:44.684Z,63.95
2023-01-12T01:43:17.449Z,65.04
2023-01-12T01:45:52.279Z,64.19
2023-01-12T01:48:24.523Z,63.22
2023-01-12T01:50:58.493Z,62.08
2023-01-12T01:53:33.321Z,60.64
2023-01-12T01:56:05.954Z,58.58
2023-01-12T01:58:38.082Z,61.54
2023-01-12T02:01:09.353Z,65.13
2023-01-12T02:03:41.055Z,63.03
2023-01-12T02:06:11.911Z,61.72
2023-01-12T02:08:46.648Z,59.03
2023-01-12T02:11:31.195Z,59.32
2023-01-12T02:14:19.344Z,64.28
2023-01-12T02:16:57.332Z,64.54
2023-01-12T02:19:34.853Z,61.50
2023-01-12T02:22:18.672Z,60.34
2023-01-12T02:24:58.044Z,58.78
2023-01-12T02:27:35.422Z,59.96
2023-01-12T02:30:22.225Z,65.08
2023-01-12T02:32:56.880Z,65.88
2023-01-12T02:35:30.027Z,62.27
2023-01-12T02:38:06.286Z,60.51
2023-01-12T02:40:41.960Z,57.48
2023-01-12T02:43:16.279Z,58.47
2023-01-12T02:45:51.302Z,59.58
2023-01-12T02:48:26.235Z,65.03
2023-01-12T02:50:58.985Z,66.56
2023-01-12T02:53:32.307Z,63.30
2023-01-12T02:56:04.875Z,61.32
2023-01-12T02:58:36.888Z,59.62
2023-01-12T03:01:09.793Z,56.79
2023-01-12T03:03:41.257Z,57.50
2023-01-12T03:06:16.102Z,59.07
2023-01-12T03:08:49.144Z,64.64
2023-01-12T03:11:20.463Z,64.65
2023-01-12T03:13:52.408Z,62.71
2023-01-12T03:16:25.336Z,60.55
2023-01-12T03:18:57.756Z,58.23
2023-01-12T03:21:31.235Z,60.37
2023-01-12T03:24:05.673Z,63.94
2023-01-12T03:26:37.417Z,64.28
2023-01-12T03:29:10.813Z,62.40
2023-01-12T03:31:41.953Z,60.11
2023-01-12T03:34:12.935Z,57.35
2023-01-12T03:36:47.854Z,59.75
2023-01-12T03:39:24.036Z,61.32
2023-01-12T03:41:58.151Z,66.60
2023-01-12T03:44:34.949Z,66.85
2023-01-12T03:47:08.661Z,63.38
2023-01-12T03:49:43.848Z,60.75
2023-01-12T03:52:15.777Z,58.29
2023-01-12T03:54:47.739Z,57.25
2023-01-12T03:57:20.314Z,59.05
2023-01-12T03:59:51.253Z,61.92
2023-01-12T04:02:22.915Z,66.14
2023-01-12T04:04:53.839Z,63.40
2023-01-12T04:07:24.892Z,60.18
2023-01-12T04:09:57.350Z,57.98
2023-01-12T04:12:28.579Z,59.72
2023-01-12T04:14:59.546Z,64.17
2023-01-12T04:17:30.492Z,62.18
2023-01-12T04:20:01.418Z,60.22
2023-01-12T04:22:47.211Z,60.61
2023-01-12T04:25:20.759Z,58.58
2023-01-12T04:27:53.504Z,57.09
2023-01-12T04:30:27.526Z,58.56
2023-01-12T04:32:58.474Z,61.19
2023-01-12T04:35:29.638Z,65.83
2023-01-12T04:38:00.119Z,64.61
2023-01-12T04:40:31.294Z,59.33
2023-01-12T04:43:02.490Z,59.27
2023-01-12T04:45:34.526Z,64.22
2023-01-12T04:48:06.155Z,64.12
2023-01-12T04:50:38.273Z,62.69
2023-01-12T04:53:09.531Z,60.53
2023-01-12T04:55:42.521Z,58.54
2023-01-12T04:58:13.763Z,62.32
2023-01-12T05:00:45.205Z,65.98
2023-01-12T05:03:16.917Z,63.58
2023-01-12T05:05:48.197Z,60.62
2023-01-12T05:08:36.338Z,59.12
2023-01-12T05:11:08.027Z,63.14
2023-01-12T05:13:38.479Z,64.90
2023-01-12T05:16:14.101Z,62.56
2023-01-12T05:18:45.289Z,60.56
2023-01-12T05:21:18.098Z,59.02
2023-01-12T05:23:48.725Z,60.60
2023-01-12T05:26:19.716Z,65.15
2023-01-12T05:28:50.977Z,62.88
2023-01-12T05:31:22.011Z,60.34
2023-01-12T05:33:52.537Z,63.52
2023-01-12T05:36:25.705Z,63.88
2023-01-12T05:38:56.969Z,62.57
2023-01-12T05:41:28.133Z,59.93
2023-01-12T05:43:59.107Z,58.80
2023-01-12T05:46:31.111Z,63.53
2023-01-12T05:49:01.606Z,64.61
2023-01-12T05:51:32.830Z,62.71
2023-01-12T05:54:04.146Z,61.71
2023-01-12T05:56:34.861Z,59.50
2023-01-12T05:59:05.799Z,59.54
2023-01-12T06:01:36.855Z,63.98
2023-01-12T06:04:07.533Z,65.14
2023-01-12T06:06:38.456Z,62.48
2023-01-12T06:09:09.413Z,60.43
2023-01-12T06:11:58.100Z,60.87
2023-01-12T06:14:28.765Z,60.74
2023-01-12T06:16:59.721Z,59.58
2023-01-12T06:19:30.453Z,57.28
2023-01-12T06:22:01.171Z,58.23
2023-01-12T06:24:31.839Z,60.37
2023-01-12T06:27:02.815Z,65.31
2023-01-12T06:29:33.456Z,66.05
2023-01-12T06:32:04.587Z,62.90
2023-01-12T06:34:38.041Z,60.70
2023-01-12T06:37:12.130Z,57.97
2023-01-12T06:39:42.673Z,58.06
2023-01-12T06:42:32.986Z,60.32
2023-01-12T06:45:04.972Z,65.61
2023-01-12T06:47:35.753Z,65.56
2023-01-12T06:50:06.951Z,62.95
2023-01-12T06:52:37.884Z,61.09
2023-01-12T06:55:09.089Z,59.99
2023-01-12T06:57:39.933Z,57.38
2023-01-12T07:00:13.306Z,58.26
2023-01-12T07:02:42.305Z,60.50
2023-01-12T07:05:13.415Z,64.55
2023-01-12T07:07:44.565Z,67.15
2023-01-12T07:10:15.661Z,63.86
2023-01-12T07:12:46.271Z,61.93
2023-01-12T07:15:17.319Z,59.11
2023-01-12T07:17:48.147Z,59.50
2023-01-12T07:20:19.537Z,63.66
2023-01-12T07:22:50.339Z,65.97
2023-01-12T07:25:21.367Z,64.51
2023-01-12T07:27:53.213Z,62.45
2023-01-12T07:30:24.664Z,59.16
2023-01-12T07:32:55.320Z,61.12
2023-01-12T07:35:26.047Z,65.38
2023-01-12T07:37:56.774Z,65.32
2023-01-12T07:40:27.700Z,62.18
2023-01-12T07:43:02.016Z,59.68
2023-01-12T07:45:33.984Z,58.69
2023-01-12T07:48:04.711Z,61.60
2023-01-12T07:50:37.979Z,66.00
2023-01-12T07:53:08.703Z,64.52
2023-01-12T07:55:43.760Z,63.01
2023-01-12T07:58:14.365Z,59.31
2023-01-12T08:00:45.216Z,59.76
2023-01-12T08:03:16.053Z,61.96
2023-01-12T08:05:46.893Z,66.41
2023-01-12T08:08:18.008Z,64.54
2023-01-12T08:10:50.359Z,61.35
2023-01-12T08:13:23.524Z,58.89
2023-01-12T08:15:54.941Z,59.84
2023-01-12T08:18:29.252Z,64.75
2023-01-12T08:21:01.636Z,66.37
2023-01-12T08:23:33.646Z,64.49
2023-01-12T08:26:06.072Z,61.09
2023-01-12T08:28:38.504Z,59.07
2023-01-12T08:31:10.587Z,59.23
2023-01-12T08:33:41.380Z,62.76
2023-01-12T08:38:49.454Z,65.38
2023-01-12T08:41:37.780Z,62.94
2023-01-12T08:44:09.925Z,60.90
2023-01-12T08:46:47.234Z,58.88
2023-01-12T08:49:18.811Z,56.97
2023-01-12T08:51:49.427Z,58.97
2023-01-12T08:54:21.347Z,61.26
2023-01-12T08:56:53.607Z,65.49
2023-01-12T08:59:24.347Z,65.10
2023-01-12T09:01:56.543Z,62.66
2023-01-12T09:04:27.946Z,60.21
2023-01-12T09:07:00.197Z,57.46
2023-01-12T09:09:31.827Z,58.63
2023-01-12T09:12:02.932Z,62.20
2023-01-12T09:14:38.828Z,64.73
2023-01-12T09:17:10.167Z,61.13
2023-01-12T09:19:40.783Z,58.79
2023-01-12T09:22:12.251Z,61.24
2023-01-12T09:24:42.911Z,65.19
2023-01-12T09:27:13.943Z,65.00
2023-01-12T09:29:44.612Z,63.13
2023-01-12T09:32:16.900Z,59.80
2023-01-12T09:34:50.218Z,58.04
2023-01-12T09:37:22.019Z,61.71
2023-01-12T09:39:52.915Z,64.98
2023-01-12T09:42:53.554Z,64.49
2023-01-12T09:45:41.833Z,62.62
2023-01-12T09:48:14.317Z,59.55
2023-01-12T09:50:50.120Z,59.34
2023-01-12T09:53:22.643Z,62.29
2023-01-12T09:55:55.227Z,58.14
2023-01-12T09:58:38.544Z,60.40
2023-01-12T10:01:20.538Z,64.85
2023-01-12T10:04:01.414Z,61.06
2023-01-12T10:06:33.246Z,60.99
2023-01-12T10:09:06.000Z,59.46
2023-01-12T10:11:43.814Z,55.42
2023-01-12T10:14:23.554Z,59.92
2023-01-12T10:16:59.069Z,63.31
2023-01-12T10:19:32.948Z,64.48
2023-01-12T10:22:10.957Z,60.58
2023-01-12T10:24:42.269Z,55.46
2023-01-12T10:27:16.082Z,57.37
2023-01-12T10:29:48.126Z,60.33
2023-01-12T10:32:20.218Z,62.16
2023-01-12T10:34:51.385Z,56.94
2023-01-12T10:37:22.558Z,55.52
2023-01-12T10:39:54.935Z,58.73
2023-01-12T10:42:44.369Z,60.80
2023-01-12T10:45:17.540Z,62.31
2023-01-12T10:47:49.618Z,62.86
2023-01-12T10:50:28.850Z,58.39
2023-01-12T10:53:01.961Z,58.10
2023-01-12T10:55:35.666Z,59.35
2023-01-12T10:58:07.185Z,60.99
2023-01-12T11:00:37.885Z,61.26
2023-01-12T11:03:26.738Z,61.50
2023-01-12T11:06:13.392Z,62.30
2023-01-12T11:08:44.344Z,58.16
2023-01-12T11:11:23.843Z,57.02
2023-01-12T11:13:56.380Z,58.47
2023-01-12T11:16:29.044Z,59.44
2023-01-12T11:19:11.795Z,59.72
2023-01-12T11:21:44.297Z,59.59
2023-01-12T11:24:16.925Z,59.63
2023-01-12T11:26:49.949Z,60.28
2023-01-12T11:29:29.408Z,60.92
2023-01-12T11:32:02.699Z,61.20
2023-01-12T11:34:37.254Z,60.08
2023-01-12T11:37:12.011Z,59.60
2023-01-12T11:39:43.844Z,59.65
2023-01-12T11:42:37.477Z,59.70
2023-01-12T11:45:10.618Z,59.91
2023-01-12T11:47:44.229Z,59.36
2023-01-12T11:50:18.120Z,59.35
2023-01-12T11:52:49.012Z,59.52
2023-01-12T11:55:25.141Z,59.64
2023-01-12T11:58:01.960Z,59.48
2023-01-12T12:00:46.689Z,59.82
2023-01-12T12:03:34.511Z,60.16
2023-01-12T12:06:08.643Z,59.93
2023-01-12T12:08:45.808Z,59.93
2023-01-12T12:11:20.883Z,59.49
2023-01-12T12:13:55.192Z,59.51
2023-01-12T12:16:29.570Z,59.71
2023-01-12T12:19:15.399Z,59.31
2023-01-12T12:21:49.416Z,59.47
2023-01-12T12:24:31.812Z,59.60
2023-01-12T12:27:08.014Z,59.76
2023-01-12T12:29:45.248Z,59.86
2023-01-12T12:32:22.714Z,60.01
2023-01-12T12:35:00.351Z,59.57
2023-01-12T12:37:36.550Z,59.90
2023-01-12T12:40:14.354Z,59.21
2023-01-12T12:43:17.822Z,59.48
2023-01-12T12:45:51.778Z,59.80
2023-01-12T12:48:24.197Z,59.38
2023-01-12T12:50:58.677Z,58.68
2023-01-12T12:53:31.038Z,59.34
2023-01-12T12:56:02.804Z,59.21
2023-01-12T12:58:44.237Z,58.58
2023-01-12T13:01:39.609Z,58.84
2023-01-12T13:04:10.986Z,59.09
2023-01-12T13:06:43.457Z,58.78
2023-01-12T13:09:31.145Z,58.92
2023-01-12T13:12:19.315Z,58.55
2023-01-12T13:15:03.418Z,58.45
2023-01-12T13:17:44.362Z,58.19
2023-01-12T13:20:36.144Z,58.53
2023-01-12T13:23:31.631Z,58.42
2023-01-12T13:26:05.229Z,58.54
2023-01-12T13:28:36.600Z,58.85
2023-01-12T13:31:29.727Z,59.12
2023-01-12T13:34:13.871Z,58.91
2023-01-12T13:36:44.815Z,58.46
2023-01-12T13:39:16.537Z,59.32
2023-01-12T13:42:04.922Z,58.35
2023-01-12T13:44:36.504Z,58.51
2023-01-12T13:47:11.796Z,58.78
2023-01-12T13:49:47.290Z,58.25
2023-01-12T13:52:30.190Z,58.39
2023-01-12T13:55:01.373Z,58.89
2023-01-12T13:57:33.246Z,58.52
2023-01-12T14:00:09.398Z,57.33
2023-01-12T14:02:43.810Z,57.50
2023-01-12T14:05:21.511Z,57.38
2023-01-12T14:08:00.811Z,57.87
2023-01-12T14:10:38.137Z,58.08
2023-01-12T14:13:25.166Z,58.32
2023-01-12T14:16:19.594Z,58.27
2023-01-12T14:18:50.902Z,58.41
2023-01-12T14:21:23.611Z,59.07
2023-01-12T14:23:54.810Z,59.00
2023-01-12T14:26:27.352Z,59.11
2023-01-12T14:28:58.632Z,59.58
2023-01-12T14:31:32.244Z,59.62
2023-01-12T14:34:05.028Z,59.86
2023-01-12T14:36:37.649Z,59.81
2023-01-12T14:39:10.590Z,59.90
2023-01-12T14:41:59.132Z,60.33
2023-01-12T14:44:47.579Z,60.51
2023-01-12T14:47:26.826Z,60.72
2023-01-12T14:49:58.515Z,60.96
2023-01-12T14:52:31.865Z,61.40
2023-01-12T14:55:16.217Z,61.51
2023-01-12T14:57:50.341Z,61.56
2023-01-12T15:00:23.465Z,62.08
2023-01-12T15:02:56.358Z,61.79
2023-01-12T15:05:30.888Z,62.31
2023-01-12T15:08:02.547Z,64.80
2023-01-12T15:10:34.190Z,64.66
2023-01-12T15:13:27.419Z,58.74
2023-01-12T15:16:16.006Z,55.60
2023-01-12T15:19:04.655Z,56.57
2023-01-12T15:21:53.421Z,57.99
2023-01-12T15:24:43.058Z,58.78
2023-01-12T15:27:15.292Z,59.83
2023-01-12T15:29:46.540Z,60.81
2023-01-12T15:32:21.811Z,60.80
2023-01-12T15:34:53.219Z,60.95
2023-01-12T15:37:24.218Z,61.56
2023-01-12T15:39:56.720Z,64.18
2023-01-12T15:42:27.277Z,66.66
2023-01-12T15:44:58.111Z,63.08
2023-01-12T15:47:29.483Z,59.94
2023-01-12T15:50:00.275Z,54.06
2023-01-12T15:52:33.108Z,53.45
2023-01-12T15:55:04.534Z,54.24
2023-01-12T15:57:35.671Z,55.99
2023-01-12T16:00:07.208Z,57.29
2023-01-12T16:02:39.402Z,59.45
2023-01-12T16:05:12.739Z,61.26
2023-01-12T16:07:43.677Z,65.16
2023-01-12T16:10:15.333Z,65.50
2023-01-12T16:12:46.312Z,63.07
2023-01-12T16:15:18.847Z,58.79
2023-01-12T16:17:49.738Z,54.70
2023-01-12T16:20:21.334Z,55.33
2023-01-12T16:22:52.211Z,56.63
2023-01-12T16:25:22.920Z,57.65
2023-01-12T16:27:57.636Z,59.40
2023-01-12T16:30:29.027Z,60.25
2023-01-12T16:33:00.527Z,61.05
2023-01-12T16:35:34.109Z,66.19
2023-01-12T16:38:05.078Z,66.61
2023-01-12T16:40:36.350Z,63.19
2023-01-12T16:43:06.921Z,58.54
2023-01-12T16:45:41.034Z,55.32
2023-01-12T16:48:11.841Z,56.68
2023-01-12T16:50:42.937Z,59.08
2023-01-12T16:53:14.424Z,61.83
2023-01-12T16:55:45.323Z,64.12
2023-01-12T16:58:16.110Z,64.51
2023-01-12T17:00:47.130Z,60.95
2023-01-12T17:03:18.148Z,56.46
2023-01-12T17:05:49.218Z,55.21
2023-01-12T17:08:20.296Z,56.33
2023-01-12T17:10:51.607Z,57.60
2023-01-12T17:13:22.961Z,60.53
2023-01-12T17:15:54.565Z,65.11
2023-01-12T17:18:26.462Z,65.37
2023-01-12T17:21:04.994Z,61.49
2023-01-12T17:23:36.275Z,57.38
2023-01-12T17:26:08.810Z,56.32
2023-01-12T17:28:39.742Z,57.17
2023-01-12T17:31:11.381Z,58.24
2023-01-12T17:33:42.740Z,59.80
2023-01-12T17:36:14.225Z,61.66
2023-01-12T17:38:45.223Z,64.46
2023-01-12T17:41:31.199Z,62.61
2023-01-12T17:44:02.981Z,63.60
2023-01-12T17:46:34.637Z,60.10
2023-01-12T17:49:06.235Z,55.81
2023-01-12T17:51:38.467Z,55.49
2023-01-12T17:54:10.116Z,56.73
2023-01-12T17:56:41.118Z,58.27
2023-01-12T17:59:14.103Z,59.38
2023-01-12T18:01:45.513Z,59.56
2023-01-12T18:04:16.577Z,60.88
2023-01-12T18:06:47.424Z,65.80
2023-01-12T18:09:18.509Z,67.89
2023-01-12T18:11:49.751Z,63.63
2023-01-12T18:14:21.912Z,60.21
2023-01-12T18:16:52.885Z,56.07
2023-01-12T18:19:23.791Z,55.59
2023-01-12T18:21:54.590Z,56.93
2023-01-12T18:24:25.640Z,58.29
2023-01-12T18:26:56.555Z,59.64
2023-01-12T18:29:27.541Z,60.82
2023-01-12T18:31:58.490Z,65.86
2023-01-12T18:34:30.050Z,67.48
2023-01-12T18:37:01.100Z,62.73
2023-01-12T18:39:31.963Z,58.81
2023-01-12T18:42:20.238Z,55.70
2023-01-12T18:44:51.038Z,56.59
2023-01-12T18:47:44.974Z,58.00
2023-01-12T18:50:33.214Z,58.89
2023-01-12T18:53:21.762Z,59.98
2023-01-12T18:55:55.335Z,60.88
2023-01-12T18:58:29.268Z,66.41
2023-01-12T19:01:01.225Z,68.04
2023-01-12T19:03:32.590Z,63.60
2023-01-12T19:06:20.885Z,60.58
2023-01-12T19:09:13.893Z,57.46
2023-01-12T19:11:49.531Z,56.30
2023-01-12T19:14:38.287Z,57.35
2023-01-12T19:17:28.590Z,59.09
2023-01-12T19:20:00.303Z,62.54
2023-01-12T19:22:48.805Z,67.45
2023-01-12T19:25:37.858Z,64.68
2023-01-12T19:28:30.551Z,60.10
2023-01-12T19:31:02.166Z,55.49
2023-01-12T19:33:33.613Z,55.94
2023-01-12T19:36:08.122Z,58.38
2023-01-12T19:38:42.830Z,61.83
2023-01-12T19:41:33.778Z,64.12
2023-01-12T19:44:06.083Z,64.80
2023-01-12T19:46:36.887Z,60.73
2023-01-12T19:49:08.313Z,56.67
2023-01-12T19:51:40.777Z,56.77
2023-01-12T19:54:11.618Z,58.01
2023-01-12T19:56:47.585Z,59.57
2023-01-12T19:59:22.540Z,60.60
2023-01-12T20:01:54.217Z,65.44
2023-01-12T20:04:25.379Z,67.66
2023-01-12T20:06:57.090Z,60.73
2023-01-12T20:09:28.412Z,61.03
2023-01-12T20:12:00.115Z,56.79
2023-01-12T20:14:31.407Z,55.80
2023-01-12T20:17:02.174Z,57.64
2023-01-12T20:19:34.025Z,60.09
2023-01-12T20:22:05.165Z,61.78
2023-01-12T20:24:36.160Z,65.97
2023-01-12T20:27:07.492Z,67.06
2023-01-12T20:29:38.261Z,62.79
2023-01-12T20:32:09.404Z,59.66
2023-01-12T20:34:40.399Z,55.55
2023-01-12T20:37:11.486Z,55.29
2023-01-12T20:39:42.120Z,56.58
2023-01-12T20:42:13.262Z,57.98
2023-01-12T20:44:44.223Z,59.40
2023-01-12T20:47:15.399Z,59.93
2023-01-12T20:49:46.175Z,64.46
2023-01-12T20:52:16.969Z,66.98
2023-01-12T20:54:47.851Z,63.88
2023-01-12T20:57:19.460Z,59.89
2023-01-12T20:59:50.450Z,55.35
2023-01-12T21:02:22.520Z,55.28
2023-01-12T21:04:53.339Z,56.76
2023-01-12T21:07:24.617Z,57.81
2023-01-12T21:09:55.322Z,59.01
2023-01-12T21:12:27.664Z,59.93
2023-01-12T21:14:59.499Z,61.00
2023-01-12T21:17:31.252Z,65.99
2023-01-12T21:20:01.932Z,66.90
2023-01-12T21:22:33.386Z,63.01
2023-01-12T21:25:04.337Z,59.92
2023-01-12T21:27:35.364Z,55.97
2023-01-12T21:30:06.375Z,55.96
2023-01-12T21:32:37.345Z,57.44
2023-01-12T21:35:08.741Z,58.44
2023-01-12T21:37:39.843Z,59.69
2023-01-12T21:40:11.672Z,60.80
2023-01-12T21:43:00.249Z,65.39
2023-01-12T21:45:31.603Z,67.27
2023-01-12T21:48:02.493Z,63.10
2023-01-12T21:50:34.721Z,59.67
2023-01-12T21:53:06.482Z,55.58
2023-01-12T21:55:37.203Z,55.75
2023-01-12T21:58:08.178Z,57.23
2023-01-12T22:00:38.924Z,58.52
2023-01-12T22:03:10.024Z,59.80
2023-01-12T22:05:40.688Z,60.83
2023-01-12T22:08:11.886Z,65.67
2023-01-12T22:10:42.589Z,67.20
2023-01-12T22:13:14.801Z,63.03
2023-01-12T22:15:46.437Z,59.71
2023-01-12T22:18:17.487Z,55.91
2023-01-12T22:20:49.134Z,55.81
2023-01-12T22:23:20.113Z,57.20
2023-01-12T22:25:51.015Z,58.84
2023-01-12T22:28:21.949Z,59.98
2023-01-12T22:30:53.287Z,61.33
2023-01-12T22:33:24.496Z,65.79
2023-01-12T22:35:55.363Z,67.92
2023-01-12T22:38:26.426Z,64.30
2023-01-12T22:40:58.263Z,60.80
2023-01-12T22:43:29.856Z,56.75
2023-01-12T22:46:00.904Z,56.44
2023-01-12T22:48:31.908Z,57.90
2023-01-12T22:51:02.640Z,59.00
2023-01-12T22:53:33.581Z,60.32
2023-01-12T22:56:05.589Z,65.15
2023-01-12T22:58:36.785Z,67.25
2023-01-12T23:01:08.471Z,63.70
2023-01-12T23:03:39.586Z,60.53
2023-01-12T23:06:12.072Z,56.80
2023-01-12T23:08:43.216Z,56.24
2023-01-12T23:11:15.061Z,57.87
2023-01-12T23:13:46.621Z,59.84
2023-01-12T23:16:18.288Z,61.19
2023-01-12T23:18:50.549Z,65.17
2023-01-12T23:21:22.563Z,67.35
2023-01-12T23:23:54.476Z,64.38
2023-01-12T23:26:26.220Z,60.66
2023-01-12T23:28:59.460Z,57.86
2023-01-12T23:31:31.973Z,56.92
2023-01-12T23:34:03.763Z,58.72
2023-01-12T23:36:36.226Z,60.01
2023-01-12T23:39:08.186Z,61.96
2023-01-12T23:41:39.378Z,67.61
2023-01-12T23:44:11.295Z,68.08
2023-01-12T23:46:43.486Z,64.32
2023-01-12T23:49:14.601Z,61.02
2023-01-12T23:51:45.316Z,58.01
2023-01-12T23:54:18.514Z,57.74
2023-01-12T23:56:52.009Z,60.52
2023-01-12T23:59:24.073Z,63.73
